Time;durP1;ratioP1;P1;durP2;ratioP2;P2;SDS_P1;SDS_P2;PMS_P1;PMS_P2;Temp;Humidity;BMP_temperature;BMP_pressure;BME280_temperature;BME280_humidity;BME280_pressure;Samples;Min_cycle;Max_cycle;Signal;HPM_P1;HPM_P2
2022/03/01 00:01:37;;;;;;;3.67;3.20;;;;;;;;;;5019558;28;20203;-62
2022/03/01 00:04:09;;;;;;;3.30;3.00;;;;;;;;;;5013738;28;20257;-63
2022/03/01 00:06:41;;;;;;;3.60;3.30;;;;;;;;;;5015220;28;20207;-63
2022/03/01 00:09:14;;;;;;;3.90;3.47;;;;;;;;;;5016999;28;20208;-63
2022/03/01 00:11:45;;;;;;;4.40;3.13;;;;;;;;;;5010190;28;20215;-63
2022/03/01 00:14:19;;;;;;;3.53;3.03;;;;;;;;;;5031804;28;20651;-65
2022/03/01 00:16:49;;;;;;;3.37;3.07;;;;;;;;;;5027618;28;20234;-62
2022/03/01 00:19:19;;;;;;;3.73;3.37;;;;;;;;;;5033954;28;20466;-62
2022/03/01 00:21:52;;;;;;;4.10;3.70;;;;;;;;;;5010853;28;20245;-62
2022/03/01 00:24:22;;;;;;;3.63;3.33;;;;;;;;;;5017572;28;20211;-64
2022/03/01 00:26:54;;;;;;;3.97;3.10;;;;;;;;;;5022464;28;20572;-63
2022/03/01 00:29:24;;;;;;;4.10;3.70;;;;;;;;;;5023076;28;20277;-64
2022/03/01 00:31:54;;;;;;;3.70;3.40;;;;;;;;;;5022672;28;20472;-64
2022/03/01 00:34:25;;;;;;;3.83;3.53;;;;;;;;;;5023546;28;20211;-63
2022/03/01 00:36:57;;;;;;;4.17;3.77;;;;;;;;;;5024222;28;20218;-64
2022/03/01 00:39:24;;;;;;;3.50;3.10;;;;;;;;;;5022913;28;20203;-63
2022/03/01 00:41:54;;;;;;;3.43;3.13;;;;;;;;;;5017792;28;20214;-62
2022/03/01 00:44:24;;;;;;;3.03;2.80;;;;;;;;;;5027798;28;20634;-63
2022/03/01 00:46:56;;;;;;;4.03;3.63;;;;;;;;;;5022785;28;20300;-62
2022/03/01 00:49:27;;;;;;;3.80;3.40;;;;;;;;;;5022583;28;20207;-63
2022/03/01 00:52:00;;;;;;;3.87;3.47;;;;;;;;;;5036688;28;20203;-64
2022/03/01 00:54:31;;;;;;;4.03;3.60;;;;;;;;;;5027185;28;20201;-63
2022/03/01 00:57:03;;;;;;;3.77;3.37;;;;;;;;;;5026036;28;20244;-63
2022/03/01 00:59:34;;;;;;;3.57;3.27;;;;;;;;;;5013346;28;20227;-63
2022/03/01 01:02:05;;;;;;;4.03;3.63;;;;;;;;;;5022551;28;20217;-64
2022/03/01 01:04:38;;;;;;;4.00;3.60;;;;;;;;;;5027854;28;20198;-63
2022/03/01 01:07:11;;;;;;;4.10;3.70;;;;;;;;;;5014614;28;20227;-64
2022/03/01 01:09:42;;;;;;;4.57;3.77;;;;;;;;;;5014474;28;20216;-63
2022/03/01 01:12:10;;;;;;;3.77;3.10;;;;;;;;;;5034603;28;20219;-64
2022/03/01 01:14:40;;;;;;;3.87;3.20;;;;;;;;;;5010037;28;20701;-64
2022/03/01 01:17:14;;;;;;;3.83;3.43;;;;;;;;;;5008235;28;20210;-62
2022/03/01 01:19:45;;;;;;;4.13;3.73;;;;;;;;;;5013520;28;20214;-63
2022/03/01 01:25:10;;;;;;;3.87;3.47;;;;;;;;;;5031501;28;20268;-63
2022/03/01 01:27:42;;;;;;;3.63;3.33;;;;;;;;;;5023955;28;20704;-63
2022/03/01 01:30:11;;;;;;;3.87;3.43;;;;;;;;;;5025619;28;20203;-62
2022/03/01 01:32:40;;;;;;;4.03;3.63;;;;;;;;;;5026609;28;20666;-62
2022/03/01 01:35:11;;;;;;;3.83;3.53;;;;;;;;;;5028137;28;20218;-64
2022/03/01 01:37:43;;;;;;;3.80;3.50;;;;;;;;;;5022049;28;20206;-62
2022/03/01 01:40:14;;;;;;;4.60;4.20;;;;;;;;;;5014198;28;20766;-62
2022/03/01 01:42:44;;;;;;;4.03;3.73;;;;;;;;;;5036212;28;20261;-63
2022/03/01 01:45:16;;;;;;;3.97;3.57;;;;;;;;;;5030079;28;20211;-63
2022/03/01 01:47:50;;;;;;;4.03;3.60;;;;;;;;;;5022629;28;20229;-64
2022/03/01 01:50:23;;;;;;;3.73;3.33;;;;;;;;;;5030765;28;20215;-62
2022/03/01 01:52:54;;;;;;;4.10;3.70;;;;;;;;;;5029103;28;20195;-62
2022/03/01 01:55:25;;;;;;;4.20;3.80;;;;;;;;;;5023094;28;20205;-62
2022/03/01 01:57:58;;;;;;;3.63;3.30;;;;;;;;;;5021796;28;20592;-62
2022/03/01 02:00:33;;;;;;;3.70;3.17;;;;;;;;;;5029019;28;20199;-62
2022/03/01 02:03:03;;;;;;;4.43;4.03;;;;;;;;;;5029192;28;20597;-62
2022/03/01 02:05:36;;;;;;;4.00;3.40;;;;;;;;;;5026487;28;20223;-62
2022/03/01 02:08:05;;;;;;;3.13;2.83;;;;;;;;;;5015558;28;20220;-63
2022/03/01 02:10:33;;;;;;;4.07;3.43;;;;;;;;;;5034533;28;20222;-63
2022/03/01 02:13:05;;;;;;;3.87;3.30;;;;;;;;;;5023646;28;20227;-64
2022/03/01 02:15:46;;;;;;;4.17;3.77;;;;;;;;;;5034080;28;20237;-63
2022/03/01 02:18:19;;;;;;;3.23;2.93;;;;;;;;;;4989255;28;20223;-62
2022/03/01 02:20:50;;;;;;;3.90;3.50;;;;;;;;;;5024660;28;20261;-63
2022/03/01 02:23:21;;;;;;;3.57;3.27;;;;;;;;;;5025602;28;20223;-62
2022/03/01 02:25:52;;;;;;;3.47;3.17;;;;;;;;;;5024852;28;20282;-62
2022/03/01 02:28:22;;;;;;;3.90;3.33;;;;;;;;;;5024687;28;20231;-64
2022/03/01 02:30:52;;;;;;;3.60;3.30;;;;;;;;;;5006534;28;20199;-63
2022/03/01 02:33:23;;;;;;;3.50;3.20;;;;;;;;;;5016203;28;20287;-62
2022/03/01 02:35:54;;;;;;;4.00;3.60;;;;;;;;;;5001964;28;20227;-63
2022/03/01 02:38:26;;;;;;;4.30;2.93;;;;;;;;;;5024699;28;20686;-64
2022/03/01 02:40:56;;;;;;;3.90;3.50;;;;;;;;;;5006615;28;20208;-62
2022/03/01 02:43:26;;;;;;;4.20;3.80;;;;;;;;;;5015914;28;20651;-63
2022/03/01 02:45:58;;;;;;;3.57;3.27;;;;;;;;;;5023667;28;20220;-63
2022/03/01 02:48:30;;;;;;;3.90;3.60;;;;;;;;;;5026003;28;20229;-63
2022/03/01 02:51:01;;;;;;;4.23;3.37;;;;;;;;;;5026124;28;20187;-63
2022/03/01 02:53:34;;;;;;;3.47;3.17;;;;;;;;;;5021282;28;20593;-62
2022/03/01 02:56:05;;;;;;;3.33;3.03;;;;;;;;;;5033976;28;20285;-63
2022/03/01 02:58:36;;;;;;;3.60;3.10;;;;;;;;;;5028566;28;20226;-63
2022/03/01 03:01:07;;;;;;;3.47;3.17;;;;;;;;;;5023424;28;20199;-63
2022/03/01 03:03:39;;;;;;;3.57;3.20;;;;;;;;;;5014975;28;20199;-63
2022/03/01 03:06:10;;;;;;;3.57;3.27;;;;;;;;;;5027353;28;20187;-63
2022/03/01 03:08:41;;;;;;;3.80;3.40;;;;;;;;;;5015994;28;20227;-62
2022/03/01 03:11:14;;;;;;;3.80;3.40;;;;;;;;;;5022087;28;20206;-62
2022/03/01 03:13:45;;;;;;;3.47;3.17;;;;;;;;;;5020847;28;20646;-63
2022/03/01 03:16:20;;;;;;;3.30;3.00;;;;;;;;;;5030239;28;20199;-62
2022/03/01 03:18:48;;;;;;;3.30;3.00;;;;;;;;;;5026956;28;20213;-62
2022/03/01 03:21:24;;;;;;;3.70;3.40;;;;;;;;;;5026401;28;20226;-63
2022/03/01 03:24:03;;;;;;;3.77;3.40;;;;;;;;;;5027014;28;20210;-63
2022/03/01 03:26:34;;;;;;;3.50;3.17;;;;;;;;;;5026006;28;20203;-63
2022/03/01 03:29:10;;;;;;;3.90;3.50;;;;;;;;;;5024892;28;20215;-63
2022/03/01 03:31:43;;;;;;;3.67;3.37;;;;;;;;;;5007760;28;21609;-64
2022/03/01 03:34:12;;;;;;;4.07;3.67;;;;;;;;;;5022002;28;20243;-64
2022/03/01 03:36:44;;;;;;;3.87;3.57;;;;;;;;;;5008580;28;20210;-63
2022/03/01 03:39:14;;;;;;;3.53;3.23;;;;;;;;;;5025060;28;20936;-63
2022/03/01 03:41:44;;;;;;;3.60;3.30;;;;;;;;;;5016357;28;20225;-63
2022/03/01 03:44:20;;;;;;;3.70;3.40;;;;;;;;;;5027059;28;20269;-63
2022/03/01 03:46:52;;;;;;;3.90;3.60;;;;;;;;;;5023630;28;20211;-64
2022/03/01 03:49:23;;;;;;;4.10;3.70;;;;;;;;;;5010525;28;20667;-63
2022/03/01 03:51:56;;;;;;;3.60;3.30;;;;;;;;;;5024243;28;20910;-62
2022/03/01 03:54:28;;;;;;;4.30;3.90;;;;;;;;;;5021378;28;20199;-62
2022/03/01 03:57:08;;;;;;;4.17;3.77;;;;;;;;;;5018648;28;20203;-64
2022/03/01 03:59:44;;;;;;;4.00;3.70;;;;;;;;;;5015284;28;20693;-64
2022/03/01 04:02:18;;;;;;;3.90;3.50;;;;;;;;;;5022602;28;20215;-63
2022/03/01 04:04:50;;;;;;;3.60;3.30;;;;;;;;;;5026748;28;20213;-62
2022/03/01 04:07:24;;;;;;;3.80;3.50;;;;;;;;;;5016260;28;20721;-62
2022/03/01 04:09:54;;;;;;;3.73;3.43;;;;;;;;;;5017384;28;20659;-63
2022/03/01 04:12:24;;;;;;;3.83;3.50;;;;;;;;;;5027690;28;20194;-62
2022/03/01 04:14:59;;;;;;;4.10;3.73;;;;;;;;;;5010720;28;20616;-63
2022/03/01 04:17:36;;;;;;;3.30;3.00;;;;;;;;;;5022308;28;20218;-63
2022/03/01 04:20:04;;;;;;;3.90;3.40;;;;;;;;;;5013717;28;20208;-64
2022/03/01 04:22:35;;;;;;;3.90;3.57;;;;;;;;;;5022340;28;20223;-62
2022/03/01 04:25:04;;;;;;;4.03;3.60;;;;;;;;;;5026144;28;20635;-62
2022/03/01 04:27:38;;;;;;;4.20;3.80;;;;;;;;;;5023395;28;20257;-63
2022/03/01 04:30:11;;;;;;;3.83;3.43;;;;;;;;;;5009179;28;20202;-64
2022/03/01 04:32:41;;;;;;;3.70;3.17;;;;;;;;;;5024727;28;20206;-62
2022/03/01 04:35:10;;;;;;;3.83;3.53;;;;;;;;;;4994425;28;20972;-63
2022/03/01 04:37:54;;;;;;;3.60;3.30;;;;;;;;;;5023295;28;20238;-62
2022/03/01 04:40:40;;;;;;;4.57;4.17;;;;;;;;;;5019121;28;20290;-63
2022/03/01 04:43:14;;;;;;;4.33;3.93;;;;;;;;;;5030573;28;20676;-61
2022/03/01 04:45:45;;;;;;;3.93;3.53;;;;;;;;;;5020762;28;20202;-63
2022/03/01 04:48:17;;;;;;;3.53;3.20;;;;;;;;;;5020906;28;20219;-63
2022/03/01 04:50:49;;;;;;;4.33;3.80;;;;;;;;;;5013435;28;20221;-63
2022/03/01 04:53:21;;;;;;;4.00;3.57;;;;;;;;;;5025533;28;20265;-63
2022/03/01 04:55:52;;;;;;;4.03;3.60;;;;;;;;;;5018283;28;20276;-63
2022/03/01 04:58:22;;;;;;;3.37;3.07;;;;;;;;;;5013911;28;20604;-62
2022/03/01 05:00:54;;;;;;;4.47;4.00;;;;;;;;;;5025812;28;20210;-62
2022/03/01 05:03:27;;;;;;;4.20;3.80;;;;;;;;;;5017227;28;20265;-62
2022/03/01 05:05:58;;;;;;;3.93;3.63;;;;;;;;;;5024518;28;20203;-63
2022/03/01 05:08:30;;;;;;;4.00;3.60;;;;;;;;;;5010322;28;20273;-63
2022/03/01 05:11:02;;;;;;;4.30;3.90;;;;;;;;;;5005167;28;20212;-62
2022/03/01 05:13:35;;;;;;;4.20;3.73;;;;;;;;;;5022841;28;20218;-63
2022/03/01 05:16:07;;;;;;;4.10;3.70;;;;;;;;;;4992956;28;20273;-63
2022/03/01 05:18:38;;;;;;;4.03;3.63;;;;;;;;;;5022988;28;20207;-64
2022/03/01 05:21:09;;;;;;;4.63;4.20;;;;;;;;;;5024626;28;20261;-62
2022/03/01 05:23:40;;;;;;;4.47;4.07;;;;;;;;;;5003997;28;20288;-63
2022/03/01 05:26:16;;;;;;;4.67;4.27;;;;;;;;;;5022963;28;20264;-64
2022/03/01 05:28:48;;;;;;;4.17;3.77;;;;;;;;;;5025475;28;20218;-62
2022/03/01 05:31:19;;;;;;;3.90;3.60;;;;;;;;;;5007890;28;20289;-63
2022/03/01 05:33:48;;;;;;;3.80;3.50;;;;;;;;;;5014826;28;20214;-64
2022/03/01 05:36:23;;;;;;;4.50;4.10;;;;;;;;;;5014631;28;20210;-62
2022/03/01 05:38:54;;;;;;;4.43;4.03;;;;;;;;;;5008365;28;20198;-64
2022/03/01 05:41:26;;;;;;;4.50;4.10;;;;;;;;;;5022942;28;20217;-62
2022/03/01 05:43:59;;;;;;;4.33;3.93;;;;;;;;;;5025996;28;20233;-62
2022/03/01 05:46:28;;;;;;;4.70;4.30;;;;;;;;;;5024019;28;20215;-62
2022/03/01 05:49:00;;;;;;;4.77;4.27;;;;;;;;;;5023028;28;20230;-64
2022/03/01 05:51:31;;;;;;;5.13;4.73;;;;;;;;;;5023435;28;20211;-62
2022/03/01 05:54:02;;;;;;;4.40;4.00;;;;;;;;;;5034267;28;20206;-62
2022/03/01 05:56:33;;;;;;;4.27;3.73;;;;;;;;;;5020542;28;20199;-62
2022/03/01 05:59:03;;;;;;;4.50;4.10;;;;;;;;;;5019813;28;20212;-63
2022/03/01 06:01:34;;;;;;;4.50;4.00;;;;;;;;;;5021166;28;21015;-61
2022/03/01 06:04:03;;;;;;;4.53;4.13;;;;;;;;;;5015537;28;20203;-64
2022/03/01 06:06:36;;;;;;;4.50;4.10;;;;;;;;;;5015596;28;20218;-62
2022/03/01 06:09:08;;;;;;;5.20;4.67;;;;;;;;;;5011725;28;20222;-64
2022/03/01 06:11:43;;;;;;;5.10;4.60;;;;;;;;;;5025744;28;20223;-63
2022/03/01 06:14:12;;;;;;;5.20;4.33;;;;;;;;;;5017970;28;20622;-63
2022/03/01 06:16:45;;;;;;;4.73;4.23;;;;;;;;;;5051255;28;20630;-62
2022/03/01 06:19:18;;;;;;;4.20;3.80;;;;;;;;;;5014421;28;20204;-63
2022/03/01 06:21:52;;;;;;;4.73;4.33;;;;;;;;;;5010625;28;20312;-61
2022/03/01 06:24:23;;;;;;;4.50;4.10;;;;;;;;;;5040401;28;20202;-62
2022/03/01 06:26:54;;;;;;;4.33;3.93;;;;;;;;;;5018598;28;20654;-61
2022/03/01 06:29:25;;;;;;;4.80;4.40;;;;;;;;;;5025207;28;20235;-61
2022/03/01 06:31:58;;;;;;;4.67;4.27;;;;;;;;;;5011810;28;20209;-63
2022/03/01 06:34:30;;;;;;;4.77;4.37;;;;;;;;;;5015103;28;20240;-63
2022/03/01 06:37:26;;;;;;;4.90;4.40;;;;;;;;;;5027076;28;20194;-64
2022/03/01 06:39:57;;;;;;;4.60;4.17;;;;;;;;;;5026971;28;20298;-64
2022/03/01 06:42:27;;;;;;;4.77;4.37;;;;;;;;;;5027906;28;20195;-61
2022/03/01 06:44:59;;;;;;;5.17;4.67;;;;;;;;;;5027366;28;20269;-61
2022/03/01 06:47:30;;;;;;;5.20;4.70;;;;;;;;;;5013388;28;20219;-62
2022/03/01 06:50:00;;;;;;;4.73;4.23;;;;;;;;;;5028348;28;20215;-63
2022/03/01 06:52:37;;;;;;;4.97;4.47;;;;;;;;;;5022107;28;20204;-64
2022/03/01 06:55:21;;;;;;;5.37;4.87;;;;;;;;;;5024599;28;20210;-63
2022/03/01 06:57:53;;;;;;;5.50;4.60;;;;;;;;;;5007958;28;20191;-64
2022/03/01 07:00:26;;;;;;;5.13;4.73;;;;;;;;;;5023053;28;20214;-61
2022/03/01 07:02:58;;;;;;;5.10;4.60;;;;;;;;;;5008096;28;20268;-61
2022/03/01 07:05:29;;;;;;;5.40;4.90;;;;;;;;;;5010403;28;20191;-60
2022/03/01 07:08:00;;;;;;;5.67;5.17;;;;;;;;;;5028600;28;20204;-62
2022/03/01 07:10:33;;;;;;;5.43;4.93;;;;;;;;;;5014364;28;20238;-63
2022/03/01 07:13:08;;;;;;;5.77;5.23;;;;;;;;;;4993532;28;20273;-65
2022/03/01 07:15:39;;;;;;;5.40;4.90;;;;;;;;;;4992361;28;20732;-63
2022/03/01 07:18:09;;;;;;;5.63;5.13;;;;;;;;;;5003413;28;20217;-63
2022/03/01 07:20:40;;;;;;;5.43;4.93;;;;;;;;;;5015738;28;20192;-63
2022/03/01 07:23:11;;;;;;;5.30;4.77;;;;;;;;;;5019629;28;20211;-65
2022/03/01 07:25:46;;;;;;;5.93;5.43;;;;;;;;;;5030390;28;20555;-64
2022/03/01 07:28:18;;;;;;;5.13;4.70;;;;;;;;;;5027507;28;20650;-64
2022/03/01 07:30:51;;;;;;;6.20;5.00;;;;;;;;;;5001057;28;20224;-63
2022/03/01 07:33:19;;;;;;;6.17;5.00;;;;;;;;;;5016970;28;20703;-63
2022/03/01 07:35:53;;;;;;;5.07;4.57;;;;;;;;;;5006997;28;20211;-61
2022/03/01 07:38:23;;;;;;;5.43;4.70;;;;;;;;;;5014038;28;20851;-62
2022/03/01 07:40:52;;;;;;;5.67;5.13;;;;;;;;;;5022212;28;20207;-64
2022/03/01 07:43:23;;;;;;;5.07;4.63;;;;;;;;;;5029198;28;20217;-63
2022/03/01 07:45:52;;;;;;;5.50;5.00;;;;;;;;;;5007275;28;20398;-64
2022/03/01 07:48:22;;;;;;;5.13;4.63;;;;;;;;;;5010145;28;20608;-65
2022/03/01 07:50:54;;;;;;;5.63;5.13;;;;;;;;;;5027083;28;20222;-63
2022/03/01 07:53:26;;;;;;;5.60;4.63;;;;;;;;;;5023323;28;20720;-63
2022/03/01 07:55:57;;;;;;;5.63;5.03;;;;;;;;;;5032319;28;20661;-63
2022/03/01 07:58:27;;;;;;;5.33;4.83;;;;;;;;;;4989148;28;20208;-63
2022/03/01 08:01:00;;;;;;;5.67;5.00;;;;;;;;;;5017273;28;20204;-62
2022/03/01 08:03:28;;;;;;;4.93;4.53;;;;;;;;;;5015023;28;20866;-62
2022/03/01 08:05:57;;;;;;;5.50;4.90;;;;;;;;;;5026962;28;20209;-64
2022/03/01 08:08:28;;;;;;;5.23;4.73;;;;;;;;;;4999285;28;20204;-62
2022/03/01 08:11:06;;;;;;;5.30;4.87;;;;;;;;;;5019773;28;20236;-65
2022/03/01 08:13:43;;;;;;;5.63;4.50;;;;;;;;;;5006739;28;20211;-63
2022/03/01 08:16:15;;;;;;;5.10;4.60;;;;;;;;;;5009638;28;20713;-61
2022/03/01 08:18:50;;;;;;;4.30;3.90;;;;;;;;;;5023984;28;20256;-63
2022/03/01 08:21:23;;;;;;;5.83;4.93;;;;;;;;;;5021994;28;20211;-62
2022/03/01 08:23:54;;;;;;;4.97;4.40;;;;;;;;;;5020735;28;20277;-62
2022/03/01 08:26:27;;;;;;;5.30;4.73;;;;;;;;;;5004488;28;20575;-62
2022/03/01 08:28:58;;;;;;;5.20;4.70;;;;;;;;;;5009014;28;20222;-63
2022/03/01 08:31:29;;;;;;;4.60;4.20;;;;;;;;;;5022110;28;20205;-61
2022/03/01 08:34:02;;;;;;;4.70;4.20;;;;;;;;;;5017483;28;20210;-61
2022/03/01 08:36:36;;;;;;;4.70;4.30;;;;;;;;;;5025756;28;20191;-63
2022/03/01 08:39:08;;;;;;;4.67;4.27;;;;;;;;;;5011291;28;20212;-64
2022/03/01 08:41:36;;;;;;;4.60;4.10;;;;;;;;;;5020053;28;20639;-62
2022/03/01 08:44:13;;;;;;;5.27;4.77;;;;;;;;;;5020014;28;20693;-61
2022/03/01 08:46:49;;;;;;;4.73;4.23;;;;;;;;;;5013186;28;20665;-64
2022/03/01 08:49:21;;;;;;;4.43;4.03;;;;;;;;;;5022962;28;20227;-62
2022/03/01 08:51:52;;;;;;;4.93;4.43;;;;;;;;;;5010096;28;20222;-61
2022/03/01 08:54:23;;;;;;;5.07;4.57;;;;;;;;;;5026017;28;20206;-61
2022/03/01 08:56:56;;;;;;;4.70;4.20;;;;;;;;;;5023104;28;20646;-62
2022/03/01 08:59:28;;;;;;;4.23;3.83;;;;;;;;;;5014248;28;20242;-62
2022/03/01 09:02:01;;;;;;;4.73;4.23;;;;;;;;;;5019165;28;20199;-61
2022/03/01 09:04:33;;;;;;;5.20;4.40;;;;;;;;;;5022785;28;20211;-61
2022/03/01 09:07:06;;;;;;;4.50;4.10;;;;;;;;;;5014823;28;20194;-63
2022/03/01 09:09:37;;;;;;;4.87;3.93;;;;;;;;;;5021102;28;20606;-63
2022/03/01 09:12:07;;;;;;;6.93;4.60;;;;;;;;;;5016180;28;20204;-64
2022/03/01 09:14:37;;;;;;;5.07;4.33;;;;;;;;;;5016007;28;20232;-62
2022/03/01 09:17:12;;;;;;;4.40;4.00;;;;;;;;;;5020401;28;20254;-63
2022/03/01 09:19:46;;;;;;;4.77;4.10;;;;;;;;;;5020515;28;20210;-64
2022/03/01 09:22:15;;;;;;;4.43;4.03;;;;;;;;;;5020934;28;20218;-62
2022/03/01 09:24:59;;;;;;;4.70;4.30;;;;;;;;;;5011381;28;20242;-63
2022/03/01 09:27:31;;;;;;;5.00;4.40;;;;;;;;;;5019874;28;20569;-61
2022/03/01 09:30:06;;;;;;;4.70;4.20;;;;;;;;;;5023300;28;20219;-62
2022/03/01 09:32:36;;;;;;;4.30;3.87;;;;;;;;;;5020760;28;20192;-64
2022/03/01 09:35:08;;;;;;;4.53;3.93;;;;;;;;;;5017387;28;20277;-62
2022/03/01 09:37:41;;;;;;;4.33;3.93;;;;;;;;;;5016958;28;20484;-62
2022/03/01 09:40:14;;;;;;;5.67;4.70;;;;;;;;;;5039011;28;20227;-62
2022/03/01 09:42:45;;;;;;;4.20;3.80;;;;;;;;;;5015089;28;20207;-62
2022/03/01 09:45:15;;;;;;;4.27;3.87;;;;;;;;;;5019327;28;20210;-62
2022/03/01 09:47:48;;;;;;;4.17;3.77;;;;;;;;;;5021047;28;21313;-63
2022/03/01 09:50:27;;;;;;;4.30;3.90;;;;;;;;;;5024704;28;20219;-61
2022/03/01 09:53:03;;;;;;;4.40;4.00;;;;;;;;;;5021843;28;20207;-61
2022/03/01 09:55:39;;;;;;;4.43;4.03;;;;;;;;;;5006744;28;20210;-62
2022/03/01 09:58:17;;;;;;;4.00;3.60;;;;;;;;;;5010722;28;20211;-63
2022/03/01 10:00:48;;;;;;;4.40;4.00;;;;;;;;;;5033810;28;20197;-62
2022/03/01 10:03:20;;;;;;;4.67;4.27;;;;;;;;;;5016572;28;20209;-63
2022/03/01 10:05:53;;;;;;;4.70;4.20;;;;;;;;;;5008259;28;20895;-62
2022/03/01 10:08:22;;;;;;;4.20;3.80;;;;;;;;;;5019057;28;20237;-64
2022/03/01 10:10:52;;;;;;;4.70;4.17;;;;;;;;;;5014546;28;20231;-62
2022/03/01 10:13:27;;;;;;;4.70;4.27;;;;;;;;;;5013815;28;20196;-62
2022/03/01 10:16:13;;;;;;;3.93;3.53;;;;;;;;;;5022382;28;20321;-62
2022/03/01 10:18:44;;;;;;;4.80;4.40;;;;;;;;;;5026511;28;20714;-63
2022/03/01 10:21:15;;;;;;;4.83;4.03;;;;;;;;;;4994791;28;20211;-62
2022/03/01 10:23:53;;;;;;;4.57;4.17;;;;;;;;;;5023645;28;20250;-63
2022/03/01 10:26:21;;;;;;;4.20;3.80;;;;;;;;;;5026808;28;20223;-64
2022/03/01 10:28:53;;;;;;;4.37;3.97;;;;;;;;;;5028772;28;20584;-65
2022/03/01 10:31:29;;;;;;;4.33;3.93;;;;;;;;;;5025581;28;20214;-63
2022/03/01 10:34:13;;;;;;;5.20;4.10;;;;;;;;;;5005994;28;20296;-63
2022/03/01 10:36:49;;;;;;;5.03;4.53;;;;;;;;;;4996484;28;20352;-61
2022/03/01 10:39:27;;;;;;;4.70;4.20;;;;;;;;;;5012296;28;20199;-61
2022/03/01 10:42:00;;;;;;;5.03;4.53;;;;;;;;;;5024309;28;20218;-62
2022/03/01 10:44:32;;;;;;;5.10;4.67;;;;;;;;;;5025609;28;20221;-62
2022/03/01 10:47:03;;;;;;;4.50;4.10;;;;;;;;;;5008803;28;20233;-62
2022/03/01 10:49:37;;;;;;;4.20;3.80;;;;;;;;;;5024865;28;20255;-62
2022/03/01 10:52:13;;;;;;;4.63;3.93;;;;;;;;;;5035255;28;20209;-66
2022/03/01 10:54:46;;;;;;;4.43;3.93;;;;;;;;;;5028657;28;20199;-63
2022/03/01 10:57:25;;;;;;;4.23;3.83;;;;;;;;;;5027880;28;20210;-64
2022/03/01 10:59:56;;;;;;;5.00;4.43;;;;;;;;;;4997185;28;20211;-65
2022/03/01 11:02:39;;;;;;;5.20;4.33;;;;;;;;;;5028332;28;20294;-63
2022/03/01 11:05:12;;;;;;;4.57;4.17;;;;;;;;;;5026578;28;20634;-62
2022/03/01 11:07:43;;;;;;;4.67;4.20;;;;;;;;;;5022827;28;20576;-62
2022/03/01 11:10:15;;;;;;;5.17;4.67;;;;;;;;;;4991584;28;20230;-64
2022/03/01 11:12:48;;;;;;;5.20;4.37;;;;;;;;;;5015478;28;20772;-63
2022/03/01 11:15:38;;;;;;;4.53;4.13;;;;;;;;;;5027939;28;20308;-62
2022/03/01 11:18:18;;;;;;;4.97;4.57;;;;;;;;;;5037784;28;20622;-63
2022/03/01 11:20:48;;;;;;;4.77;4.37;;;;;;;;;;5027986;28;20202;-62
2022/03/01 11:23:22;;;;;;;4.63;4.13;;;;;;;;;;5022080;28;20219;-62
2022/03/01 11:25:53;;;;;;;5.00;4.33;;;;;;;;;;5035300;28;20195;-62
2022/03/01 11:28:40;;;;;;;4.80;4.30;;;;;;;;;;5021260;28;20243;-63
2022/03/01 11:31:26;;;;;;;5.03;4.53;;;;;;;;;;5024851;28;20242;-63
2022/03/01 11:33:56;;;;;;;5.53;4.87;;;;;;;;;;5014313;28;20226;-65
2022/03/01 11:36:30;;;;;;;5.77;5.17;;;;;;;;;;5031097;28;20244;-63
2022/03/01 11:39:14;;;;;;;5.60;5.10;;;;;;;;;;5021016;28;20229;-63
2022/03/01 11:41:48;;;;;;;5.40;4.90;;;;;;;;;;5018561;28;20211;-61
2022/03/01 11:44:24;;;;;;;4.83;4.37;;;;;;;;;;5017099;28;20191;-61
2022/03/01 11:47:02;;;;;;;5.07;4.33;;;;;;;;;;5008718;28;20665;-63
2022/03/01 11:49:56;;;;;;;4.80;4.40;;;;;;;;;;5025693;28;20203;-62
2022/03/01 11:52:32;;;;;;;4.90;4.40;;;;;;;;;;5025349;28;20233;-64
2022/03/01 11:55:06;;;;;;;5.77;5.17;;;;;;;;;;5015566;28;20195;-62
2022/03/01 11:57:37;;;;;;;5.10;4.60;;;;;;;;;;5017567;28;20245;-62
2022/03/01 12:00:07;;;;;;;4.83;4.43;;;;;;;;;;5008993;28;20222;-61
2022/03/01 12:02:35;;;;;;;5.00;4.53;;;;;;;;;;5014537;28;20187;-63
2022/03/01 12:05:06;;;;;;;5.27;4.77;;;;;;;;;;5013803;28;20561;-62
2022/03/01 12:07:40;;;;;;;4.30;3.90;;;;;;;;;;5017001;28;20229;-63
2022/03/01 12:10:32;;;;;;;5.17;4.67;;;;;;;;;;5013749;28;20221;-63
2022/03/01 12:13:13;;;;;;;4.27;3.87;;;;;;;;;;5037511;28;20489;-64
2022/03/01 12:15:44;;;;;;;6.27;5.67;;;;;;;;;;5020855;28;20233;-63
2022/03/01 12:18:17;;;;;;;5.37;4.87;;;;;;;;;;5009050;28;20841;-63
2022/03/01 12:20:48;;;;;;;4.67;4.00;;;;;;;;;;5027702;28;20675;-61
2022/03/01 12:23:33;;;;;;;4.60;4.20;;;;;;;;;;5008961;28;20214;-62
2022/03/01 12:26:06;;;;;;;5.03;4.53;;;;;;;;;;5025152;28;20214;-62
2022/03/01 12:28:55;;;;;;;5.00;4.50;;;;;;;;;;5010471;28;20225;-62
2022/03/01 12:31:26;;;;;;;4.37;3.97;;;;;;;;;;5025479;28;20267;-61
2022/03/01 12:34:02;;;;;;;4.73;4.30;;;;;;;;;;5022230;28;20234;-61
2022/03/01 12:36:45;;;;;;;4.63;4.07;;;;;;;;;;5020346;28;20214;-62
2022/03/01 12:39:17;;;;;;;5.80;3.90;;;;;;;;;;5016748;28;20212;-61
2022/03/01 12:41:49;;;;;;;4.90;4.50;;;;;;;;;;5019413;28;20611;-63
2022/03/01 12:44:20;;;;;;;4.43;4.03;;;;;;;;;;5039153;28;20273;-65
2022/03/01 12:46:52;;;;;;;4.60;4.20;;;;;;;;;;5008809;28;20207;-61
2022/03/01 12:49:23;;;;;;;4.67;4.03;;;;;;;;;;5004249;28;20671;-63
2022/03/01 12:51:57;;;;;;;4.57;4.17;;;;;;;;;;5025907;28;20215;-62
2022/03/01 12:54:29;;;;;;;5.57;4.97;;;;;;;;;;5009699;28;20203;-62
2022/03/01 12:57:01;;;;;;;5.50;4.87;;;;;;;;;;5018442;28;20265;-63
2022/03/01 12:59:36;;;;;;;4.90;4.50;;;;;;;;;;5019573;28;20200;-62
2022/03/01 13:02:08;;;;;;;5.50;5.00;;;;;;;;;;5027278;28;20215;-62
2022/03/01 13:04:45;;;;;;;4.93;4.50;;;;;;;;;;5002722;28;20212;-62
2022/03/01 13:07:14;;;;;;;5.40;4.90;;;;;;;;;;5015500;28;20207;-64
2022/03/01 13:09:44;;;;;;;5.03;4.53;;;;;;;;;;5022426;28;20207;-63
2022/03/01 13:12:12;;;;;;;5.37;4.87;;;;;;;;;;5019795;28;20766;-63
2022/03/01 13:14:43;;;;;;;4.30;3.90;;;;;;;;;;5019281;28;20276;-63
2022/03/01 13:17:16;;;;;;;4.60;4.20;;;;;;;;;;5031319;28;20225;-62
2022/03/01 13:19:47;;;;;;;5.33;4.73;;;;;;;;;;5022102;28;20203;-61
2022/03/01 13:22:27;;;;;;;7.07;5.10;;;;;;;;;;5022756;28;20203;-63
2022/03/01 13:24:58;;;;;;;5.33;4.83;;;;;;;;;;5016469;28;20214;-63
2022/03/01 13:27:28;;;;;;;4.93;4.50;;;;;;;;;;5032539;28;20209;-62
2022/03/01 13:30:00;;;;;;;5.60;4.40;;;;;;;;;;5029428;28;20207;-64
2022/03/01 13:32:31;;;;;;;5.23;4.73;;;;;;;;;;4997216;28;20207;-63
2022/03/01 13:35:04;;;;;;;5.23;4.73;;;;;;;;;;5032310;28;20202;-63
2022/03/01 13:37:36;;;;;;;5.67;4.40;;;;;;;;;;5025701;28;20210;-62
2022/03/01 13:40:09;;;;;;;5.53;5.00;;;;;;;;;;5014196;28;20195;-62
2022/03/01 13:43:05;;;;;;;4.97;4.57;;;;;;;;;;5019127;28;20514;-62
2022/03/01 13:45:33;;;;;;;5.20;4.70;;;;;;;;;;5012948;28;20221;-61
2022/03/01 13:48:10;;;;;;;5.47;4.70;;;;;;;;;;5023756;28;20282;-62
2022/03/01 13:50:44;;;;;;;4.73;4.23;;;;;;;;;;5023747;28;20665;-61
2022/03/01 13:53:15;;;;;;;5.10;4.60;;;;;;;;;;5025864;28;20207;-61
2022/03/01 13:55:51;;;;;;;5.20;4.70;;;;;;;;;;5015825;28;20227;-64
2022/03/01 13:58:41;;;;;;;5.60;5.10;;;;;;;;;;5028843;28;20195;-63
2022/03/01 14:01:12;;;;;;;5.47;4.67;;;;;;;;;;5014860;28;20204;-64
2022/03/01 14:03:41;;;;;;;5.90;5.30;;;;;;;;;;5015274;28;20266;-64
2022/03/01 14:06:13;;;;;;;5.37;4.87;;;;;;;;;;5013989;28;20391;-62
2022/03/01 14:08:43;;;;;;;5.10;4.60;;;;;;;;;;5030428;28;20202;-63
2022/03/01 14:11:16;;;;;;;5.20;4.70;;;;;;;;;;5034149;28;20748;-63
2022/03/01 14:13:44;;;;;;;5.20;4.70;;;;;;;;;;5026443;28;20297;-63
2022/03/01 14:16:18;;;;;;;5.13;4.33;;;;;;;;;;5016085;28;20705;-64
2022/03/01 14:19:05;;;;;;;5.33;4.83;;;;;;;;;;5004132;28;20203;-64
2022/03/01 14:21:37;;;;;;;5.53;4.90;;;;;;;;;;5023597;28;20204;-62
2022/03/01 14:24:09;;;;;;;4.83;4.30;;;;;;;;;;5024251;28;20226;-63
2022/03/01 14:26:36;;;;;;;5.27;4.77;;;;;;;;;;5024384;28;20220;-61
2022/03/01 14:29:09;;;;;;;5.60;4.63;;;;;;;;;;5030421;28;20211;-61
2022/03/01 14:31:41;;;;;;;5.30;4.80;;;;;;;;;;5023497;28;20222;-61
2022/03/01 14:34:15;;;;;;;5.23;4.60;;;;;;;;;;5027067;28;20598;-62
2022/03/01 14:36:47;;;;;;;5.47;4.97;;;;;;;;;;5023107;28;20215;-64
2022/03/01 14:39:19;;;;;;;5.40;4.33;;;;;;;;;;5017427;28;20230;-62
2022/03/01 14:41:50;;;;;;;4.63;4.23;;;;;;;;;;5009117;28;20215;-63
2022/03/01 14:44:21;;;;;;;4.70;4.30;;;;;;;;;;5015313;28;20649;-63
2022/03/01 14:46:52;;;;;;;4.57;4.17;;;;;;;;;;5029494;28;20218;-62
2022/03/01 14:49:23;;;;;;;4.90;4.50;;;;;;;;;;5007312;28;20310;-62
2022/03/01 14:51:55;;;;;;;4.83;4.33;;;;;;;;;;5015920;28;20637;-63
2022/03/01 14:54:25;;;;;;;5.27;4.20;;;;;;;;;;5020766;28;20203;-63
2022/03/01 14:56:55;;;;;;;4.90;4.40;;;;;;;;;;5027861;28;20293;-63
2022/03/01 14:59:26;;;;;;;4.90;4.43;;;;;;;;;;5028386;28;20207;-64
2022/03/01 15:01:59;;;;;;;4.53;4.03;;;;;;;;;;5024752;28;20237;-64
2022/03/01 15:04:28;;;;;;;5.03;4.53;;;;;;;;;;5022732;28;20529;-63
2022/03/01 15:06:59;;;;;;;5.00;4.50;;;;;;;;;;5021683;28;20207;-62
2022/03/01 15:09:31;;;;;;;4.80;4.33;;;;;;;;;;5027703;28;20203;-62
2022/03/01 15:12:01;;;;;;;4.87;4.30;;;;;;;;;;5024122;28;20293;-61
2022/03/01 15:14:30;;;;;;;5.03;4.47;;;;;;;;;;5009212;28;20223;-61
2022/03/01 15:16:59;;;;;;;3.70;3.37;;;;;;;;;;5027772;28;20561;-62
2022/03/01 15:19:34;;;;;;;4.97;4.57;;;;;;;;;;5022055;28;20211;-62